Time;durP1;ratioP1;P1;durP2;ratioP2;P2;SDS_P1;SDS_P2;PMS_P1;PMS_P2;Temp;Humidity;BMP_temperature;BMP_pressure;BME280_temperature;BME280_humidity;BME280_pressure;Samples;Min_cycle;Max_cycle;Signal;HPM_P1;HPM_P2
2022/04/15 00:00:06;;;;;;;13.10;7.40;;;13.70;52.10;;;;;;5050962;28;20981;-72
2022/04/15 00:02:34;;;;;;;8.30;6.23;;;13.70;52.40;;;;;;5051320;28;20551;-72
2022/04/15 00:05:01;;;;;;;11.33;6.90;;;13.60;52.50;;;;;;5051204;28;20453;-73
2022/04/15 00:07:28;;;;;;;11.73;6.90;;;13.70;52.80;;;;;;5051115;28;20457;-72
2022/04/15 00:09:55;;;;;;;14.00;7.10;;;13.60;53.40;;;;;;5050764;28;20502;-73
2022/04/15 00:12:28;;;;;;;10.33;6.53;;;13.60;53.40;;;;;;5050524;28;20446;-73
2022/04/15 00:14:56;;;;;;;14.23;6.90;;;13.50;53.70;;;;;;5050746;28;20977;-73
2022/04/15 00:17:23;;;;;;;11.60;8.07;;;13.40;54.30;;;;;;5050662;28;20485;-71
2022/04/15 00:19:52;;;;;;;10.37;6.50;;;13.30;55.00;;;;;;5051165;28;20450;-73
2022/04/15 00:22:19;;;;;;;13.20;7.50;;;13.40;55.10;;;;;;5050742;28;20465;-72
2022/04/15 00:24:46;;;;;;;12.90;7.67;;;13.30;55.50;;;;;;5050475;28;20462;-72
2022/04/15 00:27:15;;;;;;;11.57;6.90;;;13.20;55.60;;;;;;5050749;28;20460;-73
2022/04/15 00:29:42;;;;;;;10.10;7.23;;;13.10;56.00;;;;;;5050644;28;20481;-72
2022/04/15 00:32:09;;;;;;;19.03;7.13;;;13.00;56.90;;;;;;5050595;28;20495;-73
2022/04/15 00:34:36;;;;;;;12.50;7.17;;;12.90;57.50;;;;;;5050636;28;20873;-72
2022/04/15 00:37:05;;;;;;;13.50;7.17;;;13.00;57.80;;;;;;5050092;28;20458;-72
2022/04/15 00:39:32;;;;;;;11.10;7.37;;;13.00;58.00;;;;;;5050202;28;20958;-72
2022/04/15 00:41:59;;;;;;;12.20;7.03;;;13.00;58.40;;;;;;5050481;28;20457;-71
2022/04/15 00:44:26;;;;;;;11.93;6.47;;;13.00;57.90;;;;;;5050143;28;20478;-71
2022/04/15 00:46:53;;;;;;;10.13;6.83;;;13.00;57.30;;;;;;5050586;28;20454;-73
2022/04/15 00:49:20;;;;;;;11.40;7.30;;;13.20;58.00;;;;;;5049932;28;21064;-72
2022/04/15 00:51:49;;;;;;;10.07;6.30;;;13.10;58.00;;;;;;5049812;28;20520;-73
2022/04/15 00:54:20;;;;;;;11.90;7.60;;;13.20;57.80;;;;;;5050058;28;20470;-72
2022/04/15 00:56:50;;;;;;;14.90;8.10;;;13.10;58.40;;;;;;5050316;28;20546;-72
2022/04/15 00:59:19;;;;;;;12.47;8.70;;;13.10;58.60;;;;;;5050190;28;20454;-71
2022/04/15 01:01:47;;;;;;;10.43;7.70;;;13.00;59.20;;;;;;5050020;28;20449;-72
2022/04/15 01:04:17;;;;;;;12.40;7.40;;;13.00;59.50;;;;;;5049794;28;20943;-72
2022/04/15 01:06:46;;;;;;;13.33;7.10;;;13.00;59.90;;;;;;5049778;28;20457;-72
2022/04/15 01:09:14;;;;;;;12.00;8.33;;;12.80;60.00;;;;;;5049878;28;20454;-72
2022/04/15 01:11:44;;;;;;;14.47;8.10;;;12.70;59.80;;;;;;5049350;28;21022;-73
2022/04/15 01:14:13;;;;;;;13.00;6.87;;;12.60;59.90;;;;;;5049692;28;20949;-71
2022/04/15 01:16:41;;;;;;;16.13;8.37;;;12.40;60.60;;;;;;5050192;28;20456;-72
2022/04/15 01:19:08;;;;;;;17.53;8.93;;;12.20;61.60;;;;;;5049546;28;20508;-72
2022/04/15 01:21:38;;;;;;;11.90;7.90;;;12.10;62.50;;;;;;5049533;28;20438;-73
2022/04/15 01:24:07;;;;;;;14.87;8.67;;;12.10;63.10;;;;;;5049854;28;20500;-72
2022/04/15 01:26:34;;;;;;;11.33;7.30;;;12.00;63.40;;;;;;5050244;28;20453;-72
2022/04/15 01:29:02;;;;;;;17.37;7.50;;;12.10;63.60;;;;;;5049677;28;20454;-72
2022/04/15 01:31:31;;;;;;;13.50;7.53;;;12.10;64.50;;;;;;5049685;28;20489;-72
2022/04/15 01:33:59;;;;;;;12.77;7.20;;;12.20;65.30;;;;;;5049287;28;20478;-71
2022/04/15 01:36:27;;;;;;;16.73;7.53;;;12.20;65.30;;;;;;5049008;28;21038;-72
2022/04/15 01:38:57;;;;;;;11.97;7.87;;;12.20;65.70;;;;;;5049815;28;20465;-72
2022/04/15 01:41:26;;;;;;;20.87;9.00;;;12.00;67.00;;;;;;5049762;28;20446;-71
2022/04/15 01:43:53;;;;;;;14.27;7.70;;;12.10;67.30;;;;;;5049118;28;20481;-72
2022/04/15 01:46:20;;;;;;;14.30;8.43;;;12.20;67.60;;;;;;5049600;28;20450;-72
2022/04/15 01:48:47;;;;;;;12.10;7.17;;;12.10;68.50;;;;;;5049061;28;21057;-72
2022/04/15 01:51:14;;;;;;;12.40;8.27;;;12.10;68.90;;;;;;5049232;28;20486;-72
2022/04/15 01:53:41;;;;;;;12.63;7.70;;;12.10;69.20;;;;;;5049307;28;20484;-71
2022/04/15 01:56:08;;;;;;;13.00;7.63;;;12.10;69.20;;;;;;5049491;28;20982;-72
2022/04/15 01:58:36;;;;;;;16.93;8.30;;;12.10;69.90;;;;;;5048777;28;20461;-72
2022/04/15 02:01:03;;;;;;;10.13;7.00;;;12.10;69.50;;;;;;5049022;28;20452;-71
2022/04/15 02:03:30;;;;;;;11.90;7.33;;;12.00;70.40;;;;;;5048955;28;20881;-71
2022/04/15 02:05:57;;;;;;;12.90;8.03;;;12.00;71.00;;;;;;5049051;28;20458;-72
2022/04/15 02:08:25;;;;;;;13.43;8.03;;;12.10;71.30;;;;;;5048987;28;20784;-71
2022/04/15 02:10:52;;;;;;;11.93;7.70;;;12.10;71.90;;;;;;5048867;28;20501;-71
2022/04/15 02:13:19;;;;;;;16.67;8.83;;;12.20;71.80;;;;;;5054169;28;20481;-72
2022/04/15 02:15:48;;;;;;;11.73;6.67;;;12.30;72.10;;;;;;5055671;28;20857;-71
2022/04/15 02:18:15;;;;;;;14.10;7.93;;;12.30;72.00;;;;;;5055942;28;20457;-71
2022/04/15 02:20:42;;;;;;;11.50;7.23;;;12.30;71.60;;;;;;5055429;28;20931;-70
2022/04/15 02:23:09;;;;;;;12.37;7.50;;;12.20;72.70;;;;;;5055524;28;20975;-71
2022/04/15 02:25:36;;;;;;;11.63;7.90;;;12.10;73.60;;;;;;5055296;28;20945;-71
2022/04/15 02:28:03;;;;;;;12.87;7.50;;;12.00;74.30;;;;;;5055481;28;20458;-72
2022/04/15 02:30:30;;;;;;;9.40;7.47;;;11.90;75.20;;;;;;5055168;28;20568;-72
2022/04/15 02:32:58;;;;;;;11.23;8.00;;;11.90;75.90;;;;;;5055181;28;20504;-72
2022/04/15 02:35:26;;;;;;;11.63;8.03;;;12.00;75.90;;;;;;5055437;28;20453;-73
2022/04/15 02:37:53;;;;;;;15.40;7.57;;;12.00;76.80;;;;;;5055650;28;20463;-72
2022/04/15 02:40:20;;;;;;;9.70;6.60;;;11.90;77.10;;;;;;5055285;28;20457;-73
2022/04/15 02:42:47;;;;;;;8.67;6.63;;;11.90;77.80;;;;;;5055094;28;20477;-71
2022/04/15 02:45:14;;;;;;;11.63;7.10;;;11.90;78.50;;;;;;5055162;28;20536;-71
2022/04/15 02:47:41;;;;;;;20.30;7.90;;;11.80;79.00;;;;;;5055026;28;20458;-71
2022/04/15 02:50:10;;;;;;;14.03;8.50;;;11.80;79.60;;;;;;5054934;28;20481;-72
2022/04/15 02:52:37;;;;;;;11.87;8.00;;;11.70;80.30;;;;;;5055273;28;20557;-72
2022/04/15 02:55:05;;;;;;;13.27;8.67;;;11.80;80.40;;;;;;5055120;28;20453;-72
2022/04/15 02:57:33;;;;;;;11.93;7.30;;;11.60;81.70;;;;;;5055060;28;20453;-71
2022/04/15 03:00:01;;;;;;;17.23;8.90;;;11.60;82.30;;;;;;5055455;28;20449;-71
2022/04/15 03:02:28;;;;;;;14.77;8.70;;;11.50;82.40;;;;;;5055391;28;20457;-72
2022/04/15 03:04:55;;;;;;;13.10;7.73;;;11.50;84.10;;;;;;5053671;28;20453;-74
2022/04/15 03:07:23;;;;;;;11.93;7.00;;;11.40;84.10;;;;;;5055332;28;20810;-72
2022/04/15 03:09:51;;;;;;;8.50;5.23;;;11.40;83.20;;;;;;5055181;28;20454;-72
2022/04/15 03:12:18;;;;;;;11.00;5.77;;;11.20;80.00;;;;;;5055079;28;20512;-72
2022/04/15 03:14:45;;;;;;;9.47;6.73;;;11.20;80.30;;;;;;5054984;28;20457;-73
2022/04/15 03:17:13;;;;;;;8.07;5.57;;;11.00;81.40;;;;;;5053567;28;20816;-72
2022/04/15 03:19:40;;;;;;;10.10;5.83;;;10.90;80.00;;;;;;5054756;28;20938;-71
2022/04/15 03:22:07;;;;;;;9.23;5.40;;;10.80;80.70;;;;;;5054997;28;20454;-73
2022/04/15 03:24:35;;;;;;;11.83;5.20;;;10.70;79.00;;;;;;5051222;28;20481;-72
2022/04/15 03:27:02;;;;;;;12.00;7.03;;;10.80;78.80;;;;;;5052093;28;20504;-72
2022/04/15 03:29:29;;;;;;;11.93;6.57;;;10.70;79.20;;;;;;5052037;28;20472;-72
2022/04/15 03:31:56;;;;;;;13.27;7.87;;;10.70;79.10;;;;;;5051882;28;21033;-73
2022/04/15 03:34:23;;;;;;;17.57;8.33;;;10.60;80.30;;;;;;5051252;28;20482;-72
2022/04/15 03:36:50;;;;;;;13.67;8.00;;;10.50;81.20;;;;;;5051615;28;20819;-72
2022/04/15 03:39:17;;;;;;;12.63;7.77;;;10.50;82.00;;;;;;5051572;28;20450;-73
2022/04/15 03:41:46;;;;;;;11.33;6.33;;;10.60;81.90;;;;;;5051539;28;20808;-73
2022/04/15 03:44:13;;;;;;;11.43;7.07;;;10.60;80.90;;;;;;5051658;28;20481;-73
2022/04/15 03:46:40;;;;;;;11.53;6.30;;;10.60;80.70;;;;;;5051752;28;20453;-72
2022/04/15 03:49:07;;;;;;;9.43;5.77;;;10.40;80.40;;;;;;5051021;28;20576;-73
2022/04/15 03:51:35;;;;;;;9.23;6.30;;;10.40;81.30;;;;;;5051309;28;21020;-72
2022/04/15 03:54:02;;;;;;;11.43;6.33;;;10.40;81.80;;;;;;5051510;28;20509;-73
2022/04/15 03:56:30;;;;;;;8.87;5.70;;;10.40;82.50;;;;;;5051292;28;20454;-72
2022/04/15 03:58:58;;;;;;;10.93;5.80;;;10.40;82.00;;;;;;5051712;28;20458;-74
2022/04/15 04:01:25;;;;;;;11.00;6.23;;;10.40;81.50;;;;;;5051141;28;20450;-72
2022/04/15 04:03:52;;;;;;;9.97;5.97;;;10.40;81.60;;;;;;5051021;28;20473;-71
2022/04/15 04:06:19;;;;;;;11.97;6.70;;;10.30;81.90;;;;;;5051298;28;20454;-73
2022/04/15 04:08:50;;;;;;;12.33;6.13;;;10.30;82.70;;;;;;5051473;28;20507;-73
2022/04/15 04:11:17;;;;;;;17.33;7.70;;;10.40;83.20;;;;;;5051135;28;20612;-72
2022/04/15 04:13:45;;;;;;;11.57;7.27;;;10.40;83.40;;;;;;5051053;28;20989;-72
2022/04/15 04:16:13;;;;;;;11.20;8.10;;;10.50;85.40;;;;;;5050802;28;21032;-73
2022/04/15 04:18:40;;;;;;;11.70;6.80;;;10.40;86.20;;;;;;5050746;28;20927;-72
2022/04/15 04:21:08;;;;;;;12.90;7.67;;;10.50;86.40;;;;;;5050882;28;20469;-73
2022/04/15 04:23:36;;;;;;;12.33;7.23;;;10.60;86.20;;;;;;5050497;28;21007;-71
2022/04/15 04:26:03;;;;;;;15.83;8.03;;;10.60;86.80;;;;;;5050716;28;20450;-72
2022/04/15 04:28:32;;;;;;;12.10;7.43;;;10.70;87.70;;;;;;5050518;28;20458;-73
2022/04/15 04:30:59;;;;;;;15.40;7.80;;;10.70;87.70;;;;;;5050393;28;20994;-73
2022/04/15 04:33:28;;;;;;;12.97;7.70;;;10.80;87.30;;;;;;5050352;28;20478;-72
2022/04/15 04:35:56;;;;;;;9.63;6.80;;;10.80;87.30;;;;;;5048929;28;20525;-72
2022/04/15 04:38:23;;;;;;;17.33;7.33;;;10.80;86.90;;;;;;5050776;28;20472;-74
2022/04/15 04:40:50;;;;;;;12.40;7.80;;;10.60;87.20;;;;;;5050365;28;20450;-72
2022/04/15 04:43:17;;;;;;;19.50;7.87;;;10.80;88.40;;;;;;5050133;28;20477;-77
2022/04/15 04:45:45;;;;;;;12.73;7.97;;;11.10;87.70;;;;;;5050547;28;20450;-71
2022/04/15 04:48:13;;;;;;;11.90;6.97;;;11.20;86.30;;;;;;5050349;28;20458;-72
2022/04/15 04:50:41;;;;;;;12.57;7.10;;;11.20;86.00;;;;;;5050776;28;20461;-73
2022/04/15 04:53:08;;;;;;;11.50;6.37;;;11.40;85.80;;;;;;5050493;28;20497;-73
2022/04/15 04:55:36;;;;;;;13.80;6.40;;;11.50;85.40;;;;;;5049900;28;20454;-71
2022/04/15 04:58:03;;;;;;;11.13;6.77;;;11.60;84.50;;;;;;5051057;28;20458;-71
2022/04/15 05:00:30;;;;;;;8.73;5.60;;;11.60;83.90;;;;;;5050367;28;20469;-71
2022/04/15 05:02:57;;;;;;;11.63;7.20;;;11.70;81.20;;;;;;5050158;28;20477;-69
2022/04/15 05:05:24;;;;;;;20.73;6.07;;;11.70;80.90;;;;;;5050165;28;20680;-76
2022/04/15 05:07:53;;;;;;;9.93;6.17;;;11.80;80.00;;;;;;5050038;28;20446;-73
2022/04/15 05:10:22;;;;;;;19.73;5.80;;;11.80;78.90;;;;;;5049844;28;20462;-71
2022/04/15 05:12:49;;;;;;;11.10;6.20;;;11.90;79.20;;;;;;5049965;28;20523;-75
2022/04/15 05:15:19;;;;;;;12.90;6.17;;;11.90;79.10;;;;;;5049884;28;20571;-69
2022/04/15 05:17:46;;;;;;;12.53;6.40;;;12.00;78.10;;;;;;5049743;28;20565;-71
2022/04/15 05:20:13;;;;;;;11.60;6.80;;;11.90;77.50;;;;;;5050481;28;20450;-73
2022/04/15 05:22:41;;;;;;;18.63;6.23;;;12.00;77.30;;;;;;5049911;28;20539;-71
2022/04/15 05:25:10;;;;;;;9.60;5.80;;;12.20;77.90;;;;;;5049963;28;20537;-72
2022/04/15 05:27:37;;;;;;;12.50;5.60;;;12.30;77.30;;;;;;5049802;28;20825;-69
2022/04/15 05:30:05;;;;;;;12.97;5.90;;;12.50;76.20;;;;;;5049888;28;20450;-73
2022/04/15 05:32:33;;;;;;;7.67;4.80;;;12.50;75.40;;;;;;5049440;28;20497;-74
2022/04/15 05:35:00;;;;;;;9.00;5.13;;;12.50;75.10;;;;;;5049393;28;20458;-72
2022/04/15 05:37:27;;;;;;;10.73;4.97;;;12.50;74.00;;;;;;5049564;28;20456;-76
2022/04/15 05:39:54;;;;;;;7.67;4.50;;;12.60;74.20;;;;;;5049761;28;20997;-76
2022/04/15 05:42:22;;;;;;;7.90;4.67;;;12.70;73.30;;;;;;5049756;28;20798;-72
2022/04/15 05:44:49;;;;;;;8.20;5.20;;;12.80;73.00;;;;;;5049446;28;20510;-73
2022/04/15 05:47:18;;;;;;;8.20;4.10;;;12.70;73.00;;;;;;5048773;28;20517;-74
2022/04/15 05:49:45;;;;;;;7.67;4.53;;;12.50;72.70;;;;;;5049050;28;20811;-73
2022/04/15 05:52:14;;;;;;;11.20;5.13;;;12.50;73.70;;;;;;5049415;28;20490;-75
2022/04/15 05:54:41;;;;;;;7.00;4.93;;;12.60;73.50;;;;;;5049168;28;20465;-69
2022/04/15 05:57:08;;;;;;;7.83;4.03;;;12.80;73.40;;;;;;5049452;28;20473;-72
2022/04/15 05:59:37;;;;;;;10.87;5.50;;;12.90;73.80;;;;;;5049320;28;20512;-73
2022/04/15 06:02:05;;;;;;;9.20;4.90;;;13.20;72.50;;;;;;5049106;28;20453;-72
2022/04/15 06:04:32;;;;;;;15.20;5.53;;;13.40;71.80;;;;;;5049116;28;20881;-75
2022/04/15 06:06:59;;;;;;;7.23;4.33;;;13.60;71.20;;;;;;5049441;28;20450;-73
2022/04/15 06:09:26;;;;;;;13.60;5.50;;;13.60;69.80;;;;;;5049324;28;20461;-73
2022/04/15 06:11:55;;;;;;;9.93;4.73;;;13.80;69.30;;;;;;5049285;28;20969;-74
2022/04/15 06:14:22;;;;;;;9.93;4.53;;;13.90;69.20;;;;;;5049344;28;20482;-74
2022/04/15 06:16:52;;;;;;;9.97;5.10;;;13.90;69.00;;;;;;5048957;28;20564;-71
2022/04/15 06:19:19;;;;;;;11.10;4.87;;;14.20;69.60;;;;;;5049134;28;20449;-70
2022/04/15 06:21:47;;;;;;;8.17;4.70;;;14.10;68.80;;;;;;5048955;28;20454;-73
2022/04/15 06:24:14;;;;;;;7.10;5.00;;;14.40;67.90;;;;;;5048945;28;20469;-73
2022/04/15 06:26:41;;;;;;;8.70;5.00;;;14.70;66.60;;;;;;5049312;28;20454;-70
2022/04/15 06:29:08;;;;;;;9.73;5.13;;;14.80;66.70;;;;;;5048445;28;20457;-75
2022/04/15 06:31:35;;;;;;;6.47;4.20;;;14.90;65.50;;;;;;5048780;28;20453;-71
2022/04/15 06:34:03;;;;;;;8.10;4.90;;;15.20;64.70;;;;;;5048469;28;20470;-68
2022/04/15 06:36:30;;;;;;;9.20;4.90;;;15.40;63.90;;;;;;5048810;28;20504;-73
2022/04/15 06:38:58;;;;;;;12.60;5.70;;;15.50;63.30;;;;;;5048429;28;20461;-74
2022/04/15 06:41:25;;;;;;;8.70;6.27;;;15.70;63.30;;;;;;5048996;28;20461;-74
2022/04/15 06:43:52;;;;;;;7.87;5.60;;;15.80;61.60;;;;;;5048803;28;20769;-74
2022/04/15 06:46:19;;;;;;;13.47;5.57;;;15.90;61.10;;;;;;5048676;28;20454;-74
2022/04/15 06:48:46;;;;;;;13.83;7.10;;;16.00;60.80;;;;;;5048473;28;20597;-70
2022/04/15 06:51:15;;;;;;;10.90;6.60;;;16.20;61.10;;;;;;5047306;28;20458;-74
2022/04/15 06:53:42;;;;;;;13.47;6.50;;;16.30;61.60;;;;;;5047000;28;20531;-71
2022/04/15 06:56:10;;;;;;;9.07;5.83;;;16.50;61.00;;;;;;5048626;28;20815;-73
2022/04/15 06:58:38;;;;;;;12.20;8.37;;;16.70;60.00;;;;;;5050179;28;20466;-74
2022/04/15 07:01:05;;;;;;;14.90;7.60;;;16.90;59.50;;;;;;5052263;28;20519;-74
2022/04/15 07:03:32;;;;;;;10.70;6.53;;;17.10;58.80;;;;;;5052409;28;20473;-78
2022/04/15 07:05:59;;;;;;;10.83;6.93;;;17.30;58.50;;;;;;5052317;28;20817;-74
2022/04/15 07:08:28;;;;;;;14.40;7.50;;;17.50;57.30;;;;;;5052384;28;20441;-74
2022/04/15 07:10:55;;;;;;;14.57;7.00;;;17.50;56.80;;;;;;5051964;28;20489;-75
2022/04/15 07:13:22;;;;;;;10.87;7.47;;;17.60;57.10;;;;;;5052212;28;20489;-74
2022/04/15 07:15:50;;;;;;;10.60;7.87;;;17.70;56.60;;;;;;5051945;28;20465;-75
2022/04/15 07:18:17;;;;;;;12.97;7.90;;;17.90;55.90;;;;;;5052057;28;20839;-75
2022/04/15 07:20:45;;;;;;;20.53;8.10;;;18.00;55.90;;;;;;5052168;28;20453;-74
2022/04/15 07:23:12;;;;;;;11.10;8.17;;;18.10;56.20;;;;;;5051494;28;20469;-75
2022/04/15 07:25:41;;;;;;;16.63;8.20;;;18.20;55.30;;;;;;5052015;28;20942;-75
2022/04/15 07:28:09;;;;;;;13.70;10.20;;;18.30;55.20;;;;;;5051891;28;20536;-74
2022/04/15 07:30:37;;;;;;;13.87;10.40;;;18.50;54.80;;;;;;5051563;28;21006;-75
2022/04/15 07:33:04;;;;;;;12.17;8.90;;;18.60;54.90;;;;;;5051658;28;20580;-75
2022/04/15 07:35:32;;;;;;;15.07;9.70;;;18.80;54.50;;;;;;5051855;28;20829;-75
2022/04/15 07:37:59;;;;;;;16.67;9.90;;;18.90;53.90;;;;;;5051617;28;20458;-75
2022/04/15 07:40:28;;;;;;;12.63;10.27;;;19.10;53.40;;;;;;5051721;28;20461;-74
2022/04/15 07:42:58;;;;;;;19.70;10.13;;;19.30;52.30;;;;;;5051746;28;20472;-74
2022/04/15 07:45:25;;;;;;;19.77;10.60;;;19.40;52.90;;;;;;5051489;28;20481;-75
2022/04/15 07:47:52;;;;;;;18.37;10.83;;;19.50;53.10;;;;;;5051587;28;20824;-75
2022/04/15 07:50:22;;;;;;;14.03;9.80;;;19.60;52.70;;;;;;5051199;28;20482;-75
2022/04/15 07:52:49;;;;;;;18.00;10.30;;;19.80;52.10;;;;;;5050819;28;20849;-74
2022/04/15 07:55:16;;;;;;;13.37;9.70;;;19.70;50.50;;;;;;5051181;28;20904;-75
2022/04/15 07:57:43;;;;;;;14.80;11.17;;;19.50;51.30;;;;;;5051223;28;20466;-76
2022/04/15 08:00:14;;;;;;;21.80;12.10;;;19.70;50.60;;;;;;5050867;28;20476;-74
2022/04/15 08:02:41;;;;;;;16.57;12.33;;;19.90;50.30;;;;;;5051203;28;20476;-73
2022/04/15 08:05:08;;;;;;;12.77;8.97;;;20.10;50.70;;;;;;5051291;28;20457;-75
2022/04/15 08:07:35;;;;;;;12.63;8.97;;;20.30;49.90;;;;;;5050947;28;20771;-75
2022/04/15 08:10:03;;;;;;;20.80;9.80;;;20.50;49.20;;;;;;5050065;28;20518;-74
2022/04/15 08:12:30;;;;;;;12.40;8.13;;;20.50;48.40;;;;;;5050498;28;20500;-75
2022/04/15 08:14:57;;;;;;;17.37;9.50;;;20.40;48.40;;;;;;5050824;28;20493;-75
2022/04/15 08:17:25;;;;;;;13.57;8.03;;;20.50;49.30;;;;;;5050757;28;20450;-72
2022/04/15 08:19:52;;;;;;;18.30;9.40;;;20.50;48.50;;;;;;5051129;28;20453;-74
2022/04/15 08:22:20;;;;;;;11.97;8.17;;;20.80;48.60;;;;;;5050780;28;20949;-74
2022/04/15 08:24:47;;;;;;;11.43;7.23;;;20.90;47.90;;;;;;5051019;28;20458;-74
2022/04/15 08:27:14;;;;;;;11.47;6.83;;;21.00;46.30;;;;;;5050805;28;20454;-73
2022/04/15 08:29:42;;;;;;;11.57;6.30;;;21.10;45.90;;;;;;5050741;28;21001;-70
2022/04/15 08:32:10;;;;;;;7.70;5.70;;;21.30;45.50;;;;;;5050587;28;20951;-72
2022/04/15 08:34:40;;;;;;;7.63;5.20;;;21.40;45.50;;;;;;5050702;28;20557;-71
2022/04/15 08:37:07;;;;;;;9.40;6.13;;;21.50;44.40;;;;;;5050448;28;20460;-71
2022/04/15 08:39:34;;;;;;;7.77;5.90;;;21.70;44.30;;;;;;5050526;28;20472;-73
2022/04/15 08:42:01;;;;;;;7.83;5.60;;;21.80;45.10;;;;;;5050778;28;20986;-72
2022/04/15 08:44:31;;;;;;;9.07;6.00;;;21.90;43.90;;;;;;5050315;28;20539;-71
2022/04/15 08:46:59;;;;;;;9.27;5.40;;;21.90;43.70;;;;;;5050152;28;20450;-69
2022/04/15 08:49:27;;;;;;;9.33;5.63;;;22.00;43.40;;;;;;5050142;28;20569;-72
2022/04/15 08:51:56;;;;;;;7.13;4.80;;;22.10;43.40;;;;;;5050134;28;20460;-71
2022/04/15 08:54:23;;;;;;;7.80;4.90;;;22.10;43.40;;;;;;5049984;28;20486;-72
2022/04/15 08:56:50;;;;;;;8.57;5.00;;;22.00;43.40;;;;;;5050391;28;20458;-72
2022/04/15 08:59:17;;;;;;;8.33;5.57;;;22.20;43.80;;;;;;5049659;28;20818;-71
2022/04/15 09:01:45;;;;;;;10.80;4.90;;;22.10;43.40;;;;;;5050397;28;20458;-71
2022/04/15 09:04:12;;;;;;;10.27;4.73;;;22.30;43.70;;;;;;5049872;28;20962;-71
2022/04/15 09:06:43;;;;;;;6.33;3.70;;;22.40;43.20;;;;;;5049734;28;20458;-73
2022/04/15 09:09:14;;;;;;;10.70;5.13;;;22.40;43.00;;;;;;5050321;28;20450;-73
2022/04/15 09:11:44;;;;;;;8.57;4.57;;;22.50;42.80;;;;;;5050261;28;20462;-75
2022/04/15 09:14:12;;;;;;;6.40;4.30;;;22.70;42.50;;;;;;5049663;28;20493;-70
2022/04/15 09:16:41;;;;;;;7.73;5.00;;;22.80;42.90;;;;;;5049622;28;20973;-74
2022/04/15 09:19:09;;;;;;;6.80;4.17;;;23.00;42.80;;;;;;5049790;28;20897;-70
2022/04/15 09:21:37;;;;;;;10.23;4.03;;;23.30;42.50;;;;;;5048966;28;20457;-72
2022/04/15 09:24:07;;;;;;;13.17;8.23;;;23.30;42.70;;;;;;5050118;28;20523;-72
2022/04/15 09:26:38;;;;;;;14.50;7.90;;;23.50;42.00;;;;;;5050328;28;20484;-71
2022/04/15 09:29:05;;;;;;;6.63;4.20;;;23.60;41.20;;;;;;5049913;28;20450;-74
2022/04/15 09:31:32;;;;;;;9.27;5.70;;;23.70;40.80;;;;;;5049372;28;20454;-72
2022/04/15 09:34:00;;;;;;;10.07;6.07;;;23.80;40.90;;;;;;5049634;28;20489;-72
2022/04/15 09:36:30;;;;;;;9.73;5.10;;;23.90;41.40;;;;;;5049735;28;20695;-72
2022/04/15 09:39:00;;;;;;;8.90;4.13;;;23.90;41.60;;;;;;5049559;28;20468;-73
2022/04/15 09:41:30;;;;;;;7.17;3.40;;;23.90;40.30;;;;;;5049146;28;20862;-72
2022/04/15 09:44:00;;;;;;;5.70;3.57;;;23.90;40.00;;;;;;5049133;28;20474;-73
2022/04/15 09:46:30;;;;;;;6.10;3.63;;;23.90;39.20;;;;;;5049553;28;20454;-72
2022/04/15 09:49:03;;;;;;;6.80;3.27;;;23.90;40.00;;;;;;5049086;28;21007;-73
2022/04/15 09:51:35;;;;;;;6.23;3.77;;;24.00;40.20;;;;;;5048802;28;20947;-72
2022/04/15 09:54:04;;;;;;;5.77;3.30;;;24.20;40.60;;;;;;5049006;28;20496;-72
2022/04/15 09:56:34;;;;;;;5.77;3.60;;;24.20;40.50;;;;;;5049290;28;20453;-72
2022/04/15 09:59:06;;;;;;;6.77;3.73;;;23.90;40.30;;;;;;5049374;28;20541;-72
2022/04/15 10:01:34;;;;;;;6.47;4.03;;;23.80;40.30;;;;;;5048885;28;20468;-73
2022/04/15 10:04:02;;;;;;;6.07;3.43;;;23.90;41.00;;;;;;5048504;28;20753;-73
2022/04/15 10:06:29;;;;;;;7.33;2.97;;;24.20;40.30;;;;;;5049239;28;20490;-73
2022/04/15 10:08:59;;;;;;;8.37;3.70;;;24.50;40.70;;;;;;5049243;28;20482;-72
2022/04/15 10:11:26;;;;;;;6.20;3.40;;;24.40;39.00;;;;;;5049226;28;20469;-71
2022/04/15 10:13:55;;;;;;;9.10;4.57;;;24.50;39.90;;;;;;5048844;28;20544;-71
2022/04/15 10:16:24;;;;;;;11.33;4.37;;;24.60;39.10;;;;;;5049183;28;20878;-72
2022/04/15 10:18:52;;;;;;;7.77;4.00;;;24.80;39.00;;;;;;5048791;28;20454;-71
2022/04/15 10:21:19;;;;;;;13.10;3.83;;;25.00;38.80;;;;;;5048954;28;20446;-72
2022/04/15 10:23:47;;;;;;;6.10;3.30;;;25.30;39.20;;;;;;5048555;28;20482;-71
2022/04/15 10:26:17;;;;;;;8.97;4.50;;;25.50;38.40;;;;;;5049233;28;20450;-72
2022/04/15 10:28:47;;;;;;;9.77;4.33;;;25.60;37.70;;;;;;5047530;28;20449;-71
2022/04/15 10:31:16;;;;;;;8.93;3.60;;;25.50;37.50;;;;;;5048406;28;20449;-72
2022/04/15 10:33:49;;;;;;;11.63;4.40;;;25.80;36.60;;;;;;5050042;28;20493;-72
2022/04/15 10:36:18;;;;;;;6.20;3.73;;;26.00;37.40;;;;;;5052639;28;20488;-72
2022/04/15 10:39:17;;;;;;;6.10;3.87;;;26.20;37.30;;;;;;5052499;28;20466;-72
2022/04/15 10:41:56;;;;;;;11.73;3.97;;;26.40;36.30;;;;;;5052834;28;20492;-72
2022/04/15 10:44:33;;;;;;;7.73;4.03;;;26.60;35.90;;;;;;5051301;28;20489;-72
2022/04/15 10:47:29;;;;;;;11.07;4.50;;;26.70;35.40;;;;;;5052703;28;20879;-72
2022/04/15 10:50:01;;;;;;;6.00;3.70;;;26.80;35.50;;;;;;5052149;28;20485;-73
2022/04/15 10:52:31;;;;;;;10.93;5.90;;;26.70;34.50;;;;;;5052540;28;20802;-72
2022/04/15 10:55:02;;;;;;;7.10;4.67;;;26.70;35.00;;;;;;5051146;28;20489;-72
2022/04/15 10:57:34;;;;;;;7.63;3.87;;;26.90;35.10;;;;;;5052391;28;20460;-71
2022/04/15 11:02:48;;;;;;;8.77;4.60;;;27.10;35.50;;;;;;5052310;28;20452;-72
2022/04/15 11:05:34;;;;;;;8.27;4.37;;;27.30;36.10;;;;;;5052508;28;20458;-72
2022/04/15 11:08:06;;;;;;;6.50;4.03;;;27.60;34.30;;;;;;5052425;28;20515;-73
2022/04/15 11:11:03;;;;;;;8.43;4.60;;;27.90;33.40;;;;;;5051993;28;20462;-72
2022/04/15 11:13:59;;;;;;;7.30;3.83;;;28.00;32.10;;;;;;5051731;28;20569;-72
2022/04/15 11:16:43;;;;;;;9.90;3.93;;;28.10;33.10;;;;;;5052438;28;20532;-72
2022/04/15 11:19:12;;;;;;;6.60;4.60;;;28.10;32.30;;;;;;5052033;28;20457;-71
2022/04/15 11:21:41;;;;;;;6.50;4.17;;;28.20;33.40;;;;;;5051679;28;20536;-73
2022/04/15 11:24:10;;;;;;;9.43;4.70;;;28.50;32.60;;;;;;5051886;28;20473;-73
2022/04/15 11:26:38;;;;;;;9.80;4.70;;;28.70;31.80;;;;;;5052215;28;20457;-74
2022/04/15 11:29:07;;;;;;;10.00;4.57;;;28.80;31.30;;;;;;5052081;28;20909;-71
2022/04/15 11:31:36;;;;;;;6.23;4.50;;;28.90;32.20;;;;;;5050296;28;20576;-72
2022/04/15 11:34:07;;;;;;;7.00;4.10;;;28.90;31.80;;;;;;5051433;28;21335;-73
2022/04/15 11:36:36;;;;;;;6.80;4.50;;;29.10;31.10;;;;;;5051614;28;20476;-74
2022/04/15 11:39:06;;;;;;;9.80;4.50;;;29.10;31.20;;;;;;5051921;28;20449;-74
2022/04/15 11:41:33;;;;;;;10.60;4.23;;;29.30;30.60;;;;;;5051924;28;20561;-74
2022/04/15 11:44:02;;;;;;;5.97;4.20;;;29.40;30.00;;;;;;5051107;28;20474;-73
2022/04/15 11:46:39;;;;;;;7.80;4.77;;;29.60;30.20;;;;;;5050832;28;20462;-73
2022/04/15 11:49:13;;;;;;;7.13;4.20;;;29.40;29.60;;;;;;5051472;28;20548;-72
2022/04/15 11:51:43;;;;;;;8.20;4.37;;;29.00;29.70;;;;;;5051545;28;20907;-74
2022/04/15 11:54:11;;;;;;;9.00;4.53;;;28.60;29.90;;;;;;5051491;28;20596;-71
2022/04/15 11:56:40;;;;;;;6.97;4.03;;;28.80;31.00;;;;;;5050962;28;20454;-74
2022/04/15 11:59:08;;;;;;;8.37;4.30;;;29.00;31.70;;;;;;5051202;28;20482;-72
2022/04/15 12:01:35;;;;;;;6.60;4.40;;;29.10;30.40;;;;;;5051611;28;20553;-72
2022/04/15 12:04:04;;;;;;;7.73;4.47;;;29.00;30.80;;;;;;5051175;28;20524;-72
2022/04/15 12:06:31;;;;;;;6.93;4.17;;;29.10;30.00;;;;;;5051001;28;20457;-72
2022/04/15 12:08:58;;;;;;;9.43;5.10;;;29.30;30.30;;;;;;5051162;28;20465;-72
2022/04/15 12:11:27;;;;;;;8.33;4.67;;;29.30;30.00;;;;;;5050630;28;20469;-73
2022/04/15 12:13:56;;;;;;;5.87;4.30;;;29.20;29.10;;;;;;5051070;28;20490;-72
2022/04/15 12:16:24;;;;;;;7.63;4.57;;;29.10;28.90;;;;;;5050971;28;20457;-73
2022/04/15 12:18:52;;;;;;;8.13;4.17;;;29.10;28.60;;;;;;5051057;28;20450;-73
2022/04/15 12:21:20;;;;;;;8.13;4.80;;;28.90;28.70;;;;;;5050873;28;20497;-73
2022/04/15 12:24:08;;;;;;;6.50;4.20;;;28.70;28.40;;;;;;5050537;28;20545;-72
2022/04/15 12:26:47;;;;;;;10.10;4.47;;;28.80;28.20;;;;;;5050696;28;21018;-72
2022/04/15 12:32:34;;;;;;;9.00;4.07;;;28.60;28.30;;;;;;5051062;28;20441;-72
2022/04/15 12:35:10;;;;;;;7.20;4.57;;;28.70;28.50;;;;;;5008190;28;20550;-73
2022/04/15 12:37:43;;;;;;;7.20;4.47;;;28.50;29.00;;;;;;5044727;28;20535;-72
2022/04/15 12:40:29;;;;;;;8.23;3.70;;;28.80;29.10;;;;;;5050800;28;20454;-73
2022/04/15 12:43:09;;;;;;;6.00;3.90;;;29.00;28.60;;;;;;5050313;28;20480;-72
2022/04/15 12:45:53;;;;;;;8.10;3.90;;;29.30;28.20;;;;;;5050669;28;20804;-72
2022/04/15 12:48:20;;;;;;;7.80;5.20;;;29.60;28.90;;;;;;5044314;28;20577;-72
2022/04/15 12:50:53;;;;;;;11.17;5.60;;;29.90;28.60;;;;;;5050334;28;20453;-71
2022/04/15 12:53:22;;;;;;;9.00;5.00;;;30.20;28.70;;;;;;5049961;28;20865;-72